sensor_id;sensor_type;location;lat;lon;timestamp;pressure;altitude;pressure_sealevel;temperature;humidity
32243;BME280;18731;42.830;24.390;2023-01-28T04:00:03;93945.34;;;0.44;78.50
32243;BME280;18731;42.830;24.390;2023-01-28T04:02:29;93954.50;;;0.47;78.90
32243;BME280;18731;42.830;24.390;2023-01-28T04:04:54;93944.06;;;0.42;78.59
32243;BME280;18731;42.830;24.390;2023-01-28T04:07:23;93967.59;;;0.52;78.75
32243;BME280;18731;42.830;24.390;2023-01-28T04:09:48;93961.22;;;0.58;78.70
32243;BME280;18731;42.830;24.390;2023-01-28T04:12:14;93962.75;;;0.64;78.66
32243;BME280;18731;42.830;24.390;2023-01-28T04:14:40;93960.66;;;0.61;78.45
32243;BME280;18731;42.830;24.390;2023-01-28T04:17:06;93971.84;;;0.72;78.14
32243;BME280;18731;42.830;24.390;2023-01-28T04:19:34;93942.91;;;0.53;77.73
32243;BME280;18731;42.830;24.390;2023-01-28T04:22:04;93975.59;;;0.66;77.95
32243;BME280;18731;42.830;24.390;2023-01-28T04:24:30;93971.97;;;0.61;77.91
32243;BME280;18731;42.830;24.390;2023-01-28T04:26:56;93961.56;;;0.51;78.13
32243;BME280;18731;42.830;24.390;2023-01-28T04:29:21;93977.22;;;0.61;78.23
32243;BME280;18731;42.830;24.390;2023-01-28T04:31:47;93981.91;;;0.64;78.13
32243;BME280;18731;42.830;24.390;2023-01-28T04:34:13;93990.25;;;0.72;78.02
32243;BME280;18731;42.830;24.390;2023-01-28T04:36:38;93976.66;;;0.64;77.91
32243;BME280;18731;42.830;24.390;2023-01-28T04:39:04;93984.81;;;0.63;77.59
32243;BME280;18731;42.830;24.390;2023-01-28T04:41:30;93988.94;;;0.69;77.58
32243;BME280;18731;42.830;24.390;2023-01-28T04:43:55;93974.53;;;0.67;77.47
32243;BME280;18731;42.830;24.390;2023-01-28T04:46:21;93993.66;;;0.72;77.26
32243;BME280;18731;42.830;24.390;2023-01-28T04:48:46;93991.81;;;0.73;77.41
32243;BME280;18731;42.830;24.390;2023-01-28T04:51:12;93992.88;;;0.72;77.39
32243;BME280;18731;42.830;24.390;2023-01-28T04:53:38;93990.84;;;0.63;77.31
32243;BME280;18731;42.830;24.390;2023-01-28T04:56:03;93998.22;;;0.61;77.21
32243;BME280;18731;42.830;24.390;2023-01-28T04:58:29;93999.22;;;0.66;76.93
32243;BME280;18731;42.830;24.390;2023-01-28T05:00:56;94008.63;;;0.72;77.01
32243;BME280;18731;42.830;24.390;2023-01-28T05:03:23;94007.38;;;0.64;77.01
32243;BME280;18731;42.830;24.390;2023-01-28T05:05:49;94020.00;;;0.62;76.99
32243;BME280;18731;42.830;24.390;2023-01-28T05:08:14;94025.53;;;0.60;77.08
32243;BME280;18731;42.830;24.390;2023-01-28T05:10:40;94025.50;;;0.66;77.19
32243;BME280;18731;42.830;24.390;2023-01-28T05:13:06;94018.44;;;0.61;76.97
32243;BME280;18731;42.830;24.390;2023-01-28T05:15:31;94030.50;;;0.62;76.96
32243;BME280;18731;42.830;24.390;2023-01-28T05:17:57;94015.72;;;0.42;77.53
32243;BME280;18731;42.830;24.390;2023-01-28T05:20:23;94021.44;;;0.49;76.94
32243;BME280;18731;42.830;24.390;2023-01-28T05:22:48;94025.25;;;0.62;76.75
32243;BME280;18731;42.830;24.390;2023-01-28T05:25:14;94015.59;;;0.57;76.50
32243;BME280;18731;42.830;24.390;2023-01-28T05:27:40;94013.06;;;0.47;76.13
32243;BME280;18731;42.830;24.390;2023-01-28T05:30:07;93985.41;;;0.26;76.17
32243;BME280;18731;42.830;24.390;2023-01-28T05:32:32;94031.72;;;0.46;76.36
32243;BME280;18731;42.830;24.390;2023-01-28T05:34:58;94029.34;;;0.44;76.39
32243;BME280;18731;42.830;24.390;2023-01-28T05:37:24;94038.84;;;0.40;76.33
32243;BME280;18731;42.830;24.390;2023-01-28T05:39:50;94038.06;;;0.40;76.29
32243;BME280;18731;42.830;24.390;2023-01-28T05:42:15;94035.13;;;0.46;76.14
32243;BME280;18731;42.830;24.390;2023-01-28T05:44:43;94048.47;;;0.50;76.14
32243;BME280;18731;42.830;24.390;2023-01-28T05:47:08;94050.31;;;0.49;75.98
32243;BME280;18731;42.830;24.390;2023-01-28T05:49:34;94046.91;;;0.49;75.92
32243;BME280;18731;42.830;24.390;2023-01-28T05:51:59;94055.81;;;0.53;76.20
32243;BME280;18731;42.830;24.390;2023-01-28T05:54:27;94050.75;;;0.61;76.37
32243;BME280;18731;42.830;24.390;2023-01-28T05:56:53;94050.75;;;0.61;76.29
32243;BME280;18731;42.830;24.390;2023-01-28T05:59:19;94053.41;;;0.56;76.30
32243;BME280;18731;42.830;24.390;2023-01-28T06:01:44;94064.94;;;0.60;76.20
32243;BME280;18731;42.830;24.390;2023-01-28T06:04:10;94060.78;;;0.54;76.27
32243;BME280;18731;42.830;24.390;2023-01-28T06:06:36;94074.41;;;0.56;76.20
32243;BME280;18731;42.830;24.390;2023-01-28T06:09:01;94078.03;;;0.66;76.11
32243;BME280;18731;42.830;24.390;2023-01-28T06:11:27;94080.06;;;0.74;76.07
32243;BME280;18731;42.830;24.390;2023-01-28T06:13:53;94091.03;;;0.81;75.84
32243;BME280;18731;42.830;24.390;2023-01-28T06:16:18;94082.13;;;0.77;75.94
32243;BME280;18731;42.830;24.390;2023-01-28T06:18:44;94069.00;;;0.77;76.27
32243;BME280;18731;42.830;24.390;2023-01-28T06:21:10;94083.31;;;0.89;75.84
32243;BME280;18731;42.830;24.390;2023-01-28T06:23:35;94039.91;;;0.68;75.51
32243;BME280;18731;42.830;24.390;2023-01-28T06:26:01;94083.03;;;0.91;75.16
32243;BME280;18731;42.830;24.390;2023-01-28T06:28:26;94097.19;;;0.95;75.40
32243;BME280;18731;42.830;24.390;2023-01-28T06:30:52;94090.84;;;1.01;75.15
32243;BME280;18731;42.830;24.390;2023-01-28T06:33:19;94092.91;;;1.04;75.49
32243;BME280;18731;42.830;24.390;2023-01-28T06:35:45;94101.28;;;1.06;75.39
32243;BME280;18731;42.830;24.390;2023-01-28T06:38:11;94099.69;;;1.10;75.10
32243;BME280;18731;42.830;24.390;2023-01-28T06:40:37;94106.41;;;1.21;74.56
32243;BME280;18731;42.830;24.390;2023-01-28T06:43:04;94103.72;;;1.26;74.45
32243;BME280;18731;42.830;24.390;2023-01-28T06:45:31;94111.28;;;1.33;74.34
32243;BME280;18731;42.830;24.390;2023-01-28T06:47:57;94120.47;;;1.36;73.96
32243;BME280;18731;42.830;24.390;2023-01-28T06:50:23;94107.91;;;1.27;74.01
32243;BME280;18731;42.830;24.390;2023-01-28T06:52:49;94122.75;;;1.42;73.85
32243;BME280;18731;42.830;24.390;2023-01-28T06:55:14;94126.66;;;1.45;73.72
32243;BME280;18731;42.830;24.390;2023-01-28T06:57:40;94122.44;;;1.49;73.65
32243;BME280;18731;42.830;24.390;2023-01-28T07:00:09;94130.25;;;1.54;73.42
32243;BME280;18731;42.830;24.390;2023-01-28T07:02:35;94133.41;;;1.56;73.58
32243;BME280;18731;42.830;24.390;2023-01-28T07:05:02;94129.13;;;1.60;73.27
32243;BME280;18731;42.830;24.390;2023-01-28T07:07:28;94123.31;;;1.63;73.04
32243;BME280;18731;42.830;24.390;2023-01-28T07:09:53;94143.25;;;1.69;72.92
32243;BME280;18731;42.830;24.390;2023-01-28T07:12:19;94135.28;;;1.74;72.69
32243;BME280;18731;42.830;24.390;2023-01-28T07:14:45;94144.34;;;1.87;72.41
32243;BME280;18731;42.830;24.390;2023-01-28T07:17:10;94141.88;;;1.96;72.22
32243;BME280;18731;42.830;24.390;2023-01-28T07:19:36;94148.72;;;1.97;72.04
32243;BME280;18731;42.830;24.390;2023-01-28T07:22:01;94134.63;;;1.87;71.95
32243;BME280;18731;42.830;24.390;2023-01-28T07:24:28;94146.94;;;1.92;71.60
32243;BME280;18731;42.830;24.390;2023-01-28T07:26:54;94154.03;;;1.91;71.81
32243;BME280;18731;42.830;24.390;2023-01-28T07:29:19;94141.00;;;1.81;71.85
32243;BME280;18731;42.830;24.390;2023-01-28T07:31:45;94149.28;;;1.93;71.60
32243;BME280;18731;42.830;24.390;2023-01-28T07:34:11;94159.03;;;1.93;70.92
32243;BME280;18731;42.830;24.390;2023-01-28T07:36:37;94157.72;;;1.90;71.00
32243;BME280;18731;42.830;24.390;2023-01-28T07:39:03;94156.09;;;1.94;70.96
32243;BME280;18731;42.830;24.390;2023-01-28T07:41:29;94162.88;;;2.01;70.82
32243;BME280;18731;42.830;24.390;2023-01-28T07:43:54;94166.06;;;1.98;70.88
32243;BME280;18731;42.830;24.390;2023-01-28T07:46:20;94158.47;;;1.96;70.84
32243;BME280;18731;42.830;24.390;2023-01-28T07:48:46;94163.72;;;1.96;70.91
32243;BME280;18731;42.830;24.390;2023-01-28T07:51:12;94163.00;;;1.90;71.07
32243;BME280;18731;42.830;24.390;2023-01-28T07:53:38;94159.88;;;1.88;71.31
32243;BME280;18731;42.830;24.390;2023-01-28T07:56:03;94160.47;;;1.80;71.37
32243;BME280;18731;42.830;24.390;2023-01-28T07:58:31;94158.06;;;1.84;71.26
32243;BME280;18731;42.830;24.390;2023-01-28T08:01:00;94162.38;;;1.99;71.49
32243;BME280;18731;42.830;24.390;2023-01-28T08:03:27;94158.91;;;2.03;71.56
32243;BME280;18731;42.830;24.390;2023-01-28T08:05:54;94165.53;;;2.19;71.32
32243;BME280;18731;42.830;24.390;2023-01-28T08:08:24;94145.25;;;2.20;70.86
32243;BME280;18731;42.830;24.390;2023-01-28T08:10:51;94163.91;;;2.42;70.16
32243;BME280;18731;42.830;24.390;2023-01-28T08:13:18;94155.44;;;2.45;69.34
32243;BME280;18731;42.830;24.390;2023-01-28T08:15:44;94166.34;;;2.57;68.62
32243;BME280;18731;42.830;24.390;2023-01-28T08:18:12;94160.47;;;2.66;68.24
32243;BME280;18731;42.830;24.390;2023-01-28T08:20:38;94162.44;;;2.74;68.17
32243;BME280;18731;42.830;24.390;2023-01-28T08:23:07;94166.22;;;2.86;67.94
32243;BME280;18731;42.830;24.390;2023-01-28T08:25:34;94171.63;;;2.95;67.76
32243;BME280;18731;42.830;24.390;2023-01-28T08:27:59;94181.00;;;3.01;67.50
32243;BME280;18731;42.830;24.390;2023-01-28T08:30:25;94175.53;;;2.98;67.09
32243;BME280;18731;42.830;24.390;2023-01-28T08:32:54;94171.34;;;2.78;67.20
32243;BME280;18731;42.830;24.390;2023-01-28T08:35:20;94173.84;;;2.88;67.46
32243;BME280;18731;42.830;24.390;2023-01-28T08:37:46;94173.38;;;3.00;67.35
32243;BME280;18731;42.830;24.390;2023-01-28T08:40:12;94154.72;;;2.96;67.45
32243;BME280;18731;42.830;24.390;2023-01-28T08:42:37;94177.56;;;3.19;67.49
32243;BME280;18731;42.830;24.390;2023-01-28T08:45:03;94175.31;;;3.27;67.85
32243;BME280;18731;42.830;24.390;2023-01-28T08:47:29;94183.06;;;3.37;67.37
32243;BME280;18731;42.830;24.390;2023-01-28T08:49:55;94165.19;;;3.34;65.95
32243;BME280;18731;42.830;24.390;2023-01-28T08:52:20;94179.97;;;3.48;65.74
32243;BME280;18731;42.830;24.390;2023-01-28T08:54:46;94177.16;;;3.59;65.27
32243;BME280;18731;42.830;24.390;2023-01-28T08:57:12;94158.38;;;3.60;65.38
32243;BME280;18731;42.830;24.390;2023-01-28T08:59:37;94184.41;;;3.80;64.66
32243;BME280;18731;42.830;24.390;2023-01-28T09:02:12;94189.00;;;3.88;64.22
32243;BME280;18731;42.830;24.390;2023-01-28T09:04:38;94173.06;;;3.94;64.52
32243;BME280;18731;42.830;24.390;2023-01-28T09:07:04;94182.56;;;3.95;64.54
32243;BME280;18731;42.830;24.390;2023-01-28T09:09:30;94178.25;;;3.99;64.38
32243;BME280;18731;42.830;24.390;2023-01-28T09:11:55;94174.63;;;3.95;64.37
32243;BME280;18731;42.830;24.390;2023-01-28T09:14:21;94178.75;;;4.01;64.01
32243;BME280;18731;42.830;24.390;2023-01-28T09:16:47;94185.59;;;4.02;64.17
32243;BME280;18731;42.830;24.390;2023-01-28T09:19:12;94195.97;;;3.98;64.04
32243;BME280;18731;42.830;24.390;2023-01-28T09:21:38;94188.53;;;3.86;64.63
32243;BME280;18731;42.830;24.390;2023-01-28T09:24:05;94186.44;;;3.70;65.18
32243;BME280;18731;42.830;24.390;2023-01-28T09:26:34;94185.03;;;3.45;65.74
32243;BME280;18731;42.830;24.390;2023-01-28T09:29:00;94181.84;;;3.15;66.39
32243;BME280;18731;42.830;24.390;2023-01-28T09:31:25;94193.97;;;2.98;67.79
32243;BME280;18731;42.830;24.390;2023-01-28T09:33:51;94185.44;;;2.87;67.87
32243;BME280;18731;42.830;24.390;2023-01-28T09:36:21;94191.38;;;2.79;68.35
32243;BME280;18731;42.830;24.390;2023-01-28T09:38:47;94183.31;;;2.70;68.37
32243;BME280;18731;42.830;24.390;2023-01-28T09:41:28;94180.66;;;2.51;68.71
32243;BME280;18731;42.830;24.390;2023-01-28T09:46:30;94191.06;;;2.62;69.09
32243;BME280;18731;42.830;24.390;2023-01-28T09:48:57;94177.44;;;2.54;69.04
32243;BME280;18731;42.830;24.390;2023-01-28T09:51:42;94193.84;;;2.70;69.31
32243;BME280;18731;42.830;24.390;2023-01-28T09:54:30;94199.34;;;2.74;69.22
32243;BME280;18731;42.830;24.390;2023-01-28T09:57:06;94193.56;;;2.72;69.30
32243;BME280;18731;42.830;24.390;2023-01-28T09:59:36;94185.59;;;2.77;69.33
32243;BME280;18731;42.830;24.390;2023-01-28T10:05:19;94195.69;;;3.07;67.99
32243;BME280;18731;42.830;24.390;2023-01-28T10:08:10;94198.16;;;3.17;67.52
32243;BME280;18731;42.830;24.390;2023-01-28T10:11:39;94189.41;;;3.36;67.31
32243;BME280;18731;42.830;24.390;2023-01-28T10:14:05;94190.72;;;3.52;67.18
32243;BME280;18731;42.830;24.390;2023-01-28T10:16:37;94188.66;;;3.49;66.56
32243;BME280;18731;42.830;24.390;2023-01-28T10:19:15;94177.34;;;3.62;66.23
32243;BME280;18731;42.830;24.390;2023-01-28T10:21:54;94179.81;;;3.72;66.29
32243;BME280;18731;42.830;24.390;2023-01-28T10:24:37;94183.25;;;3.86;65.76
32243;BME280;18731;42.830;24.390;2023-01-28T10:27:20;94180.69;;;3.95;65.18
32243;BME280;18731;42.830;24.390;2023-01-28T10:29:47;94182.84;;;4.20;64.97
32243;BME280;18731;42.830;24.390;2023-01-28T10:32:32;94183.03;;;4.24;64.42
32243;BME280;18731;42.830;24.390;2023-01-28T10:34:58;94183.53;;;4.26;64.35
32243;BME280;18731;42.830;24.390;2023-01-28T10:37:26;94191.94;;;4.28;64.40
32243;BME280;18731;42.830;24.390;2023-01-28T10:39:56;94184.97;;;4.32;64.35
32243;BME280;18731;42.830;24.390;2023-01-28T10:42:37;94189.47;;;4.45;63.90
32243;BME280;18731;42.830;24.390;2023-01-28T10:45:21;94186.34;;;4.43;64.42
32243;BME280;18731;42.830;24.390;2023-01-28T10:50:27;94176.91;;;4.65;63.70
32243;BME280;18731;42.830;24.390;2023-01-28T10:53:01;94183.13;;;4.82;63.21
32243;BME280;18731;42.830;24.390;2023-01-28T10:58:03;94181.88;;;5.02;62.93
32243;BME280;18731;42.830;24.390;2023-01-28T11:00:35;94177.59;;;5.15;62.13
32243;BME280;18731;42.830;24.390;2023-01-28T11:03:01;94183.78;;;5.10;61.44
32243;BME280;18731;42.830;24.390;2023-01-28T11:05:29;94185.94;;;5.22;61.46
32243;BME280;18731;42.830;24.390;2023-01-28T11:08:15;94189.44;;;5.17;61.74
32243;BME280;18731;42.830;24.390;2023-01-28T11:10:43;94188.28;;;5.24;62.16
32243;BME280;18731;42.830;24.390;2023-01-28T11:13:21;94182.09;;;5.28;62.01
32243;BME280;18731;42.830;24.390;2023-01-28T11:16:00;94179.13;;;5.30;61.71
32243;BME280;18731;42.830;24.390;2023-01-28T11:18:34;94184.06;;;5.45;61.39
32243;BME280;18731;42.830;24.390;2023-01-28T11:21:13;94182.13;;;5.37;62.07
32243;BME280;18731;42.830;24.390;2023-01-28T11:23:51;94185.38;;;5.56;62.16
32243;BME280;18731;42.830;24.390;2023-01-28T11:26:23;94182.91;;;5.37;61.30
32243;BME280;18731;42.830;24.390;2023-01-28T11:28:51;94180.34;;;5.24;61.47
32243;BME280;18731;42.830;24.390;2023-01-28T11:31:18;94183.03;;;5.32;60.98
32243;BME280;18731;42.830;24.390;2023-01-28T11:33:51;94173.28;;;4.97;60.07
32243;BME280;18731;42.830;24.390;2023-01-28T11:36:25;94175.00;;;4.43;61.86
32243;BME280;18731;42.830;24.390;2023-01-28T11:41:39;94166.31;;;4.15;62.99
32243;BME280;18731;42.830;24.390;2023-01-28T11:44:26;94180.88;;;4.12;63.35
32243;BME280;18731;42.830;24.390;2023-01-28T11:55:42;94178.91;;;3.49;65.63
32243;BME280;18731;42.830;24.390;2023-01-28T11:58:35;94170.41;;;3.52;64.43
32243;BME280;18731;42.830;24.390;2023-01-28T12:01:32;94180.59;;;3.27;65.64
32243;BME280;18731;42.830;24.390;2023-01-28T12:07:31;94181.66;;;3.26;66.38
32243;BME280;18731;42.830;24.390;2023-01-28T12:10:27;94178.84;;;3.22;66.22
32243;BME280;18731;42.830;24.390;2023-01-28T12:15:53;94182.28;;;3.36;66.29
32243;BME280;18731;42.830;24.390;2023-01-28T12:18:42;94193.69;;;2.99;67.44
32243;BME280;18731;42.830;24.390;2023-01-28T12:24:19;94188.69;;;3.16;66.55
32243;BME280;18731;42.830;24.390;2023-01-28T12:27:10;94193.88;;;3.21;67.02
32243;BME280;18731;42.830;24.390;2023-01-28T12:30:20;94192.84;;;3.04;66.48
32243;BME280;18731;42.830;24.390;2023-01-28T12:35:45;94194.25;;;3.15;68.09
32243;BME280;18731;42.830;24.390;2023-01-28T12:46:17;94196.66;;;3.44;66.71
32243;BME280;18731;42.830;24.390;2023-01-28T12:55:02;94204.09;;;3.42;65.95
32243;BME280;18731;42.830;24.390;2023-01-28T12:57:31;94203.69;;;3.35;65.62
32243;BME280;18731;42.830;24.390;2023-01-28T13:00:32;94202.44;;;3.13;66.41
32243;BME280;18731;42.830;24.390;2023-01-28T13:03:30;94198.16;;;3.17;67.67
32243;BME280;18731;42.830;24.390;2023-01-28T13:06:01;94214.63;;;3.42;67.80
32243;BME280;18731;42.830;24.390;2023-01-28T13:08:30;94201.75;;;3.40;66.71
32243;BME280;18731;42.830;24.390;2023-01-28T13:10:58;94211.34;;;3.50;67.20
32243;BME280;18731;42.830;24.390;2023-01-28T13:13:35;94223.94;;;3.20;66.81
32243;BME280;18731;42.830;24.390;2023-01-28T13:16:03;94221.56;;;3.05;67.42
32243;BME280;18731;42.830;24.390;2023-01-28T13:18:34;94215.00;;;3.03;68.34
32243;BME280;18731;42.830;24.390;2023-01-28T13:23:50;94231.72;;;3.31;67.25
32243;BME280;18731;42.830;24.390;2023-01-28T13:26:30;94221.56;;;3.05;67.57
32243;BME280;18731;42.830;24.390;2023-01-28T13:31:47;94229.97;;;3.40;67.61
32243;BME280;18731;42.830;24.390;2023-01-28T13:34:36;94231.63;;;3.36;67.37
32243;BME280;18731;42.830;24.390;2023-01-28T13:40:21;94246.06;;;3.57;66.54
32243;BME280;18731;42.830;24.390;2023-01-28T13:43:02;94239.47;;;3.41;66.52
32243;BME280;18731;42.830;24.390;2023-01-28T13:45:28;94239.53;;;3.36;66.61
32243;BME280;18731;42.830;24.390;2023-01-28T13:48:05;94241.09;;;3.37;67.32
32243;BME280;18731;42.830;24.390;2023-01-28T13:50:42;94245.31;;;3.38;67.94
32243;BME280;18731;42.830;24.390;2023-01-28T13:53:44;94247.63;;;3.26;67.16
32243;BME280;18731;42.830;24.390;2023-01-28T13:56:20;94256.41;;;3.02;68.00
32243;BME280;18731;42.830;24.390;2023-01-28T14:10:09;94261.31;;;2.90;68.73
32243;BME280;18731;42.830;24.390;2023-01-28T14:12:49;94262.94;;;2.86;69.71
32243;BME280;18731;42.830;24.390;2023-01-28T14:18:45;94253.19;;;2.44;70.04
32243;BME280;18731;42.830;24.390;2023-01-28T14:21:13;94259.63;;;2.56;70.42
32243;BME280;18731;42.830;24.390;2023-01-28T14:23:46;94265.84;;;2.42;70.27
32243;BME280;18731;42.830;24.390;2023-01-28T14:32:24;94266.53;;;2.29;70.69
32243;BME280;18731;42.830;24.390;2023-01-28T14:34:54;94278.75;;;2.19;71.89
32243;BME280;18731;42.830;24.390;2023-01-28T14:37:24;94264.31;;;2.17;73.13
32243;BME280;18731;42.830;24.390;2023-01-28T14:39:57;94278.03;;;2.38;73.01
32243;BME280;18731;42.830;24.390;2023-01-28T14:45:07;94278.06;;;2.56;72.64
32243;BME280;18731;42.830;24.390;2023-01-28T14:47:46;94281.19;;;2.58;72.71
32243;BME280;18731;42.830;24.390;2023-01-28T14:59:09;94302.84;;;2.79;73.26
32243;BME280;18731;42.830;24.390;2023-01-28T15:01:46;94298.47;;;2.70;73.41
32243;BME280;18731;42.830;24.390;2023-01-28T15:04:30;94297.34;;;2.76;73.44
32243;BME280;18731;42.830;24.390;2023-01-28T15:07:01;94296.91;;;2.69;73.65
32243;BME280;18731;42.830;24.390;2023-01-28T15:09:26;94302.19;;;2.69;74.22
32243;BME280;18731;42.830;24.390;2023-01-28T15:11:56;94298.06;;;2.57;74.02
32243;BME280;18731;42.830;24.390;2023-01-28T15:14:30;94307.53;;;2.58;74.11
32243;BME280;18731;42.830;24.390;2023-01-28T15:16:57;94308.78;;;2.42;74.67
32243;BME280;18731;42.830;24.390;2023-01-28T15:19:30;94306.22;;;2.37;74.93
32243;BME280;18731;42.830;24.390;2023-01-28T15:21:58;94312.75;;;2.40;74.74
32243;BME280;18731;42.830;24.390;2023-01-28T15:24:25;94308.44;;;2.25;75.14
32243;BME280;18731;42.830;24.390;2023-01-28T15:26:51;94313.38;;;2.08;75.71
32243;BME280;18731;42.830;24.390;2023-01-28T15:29:33;94311.28;;;2.05;76.06
32243;BME280;18731;42.830;24.390;2023-01-28T15:32:01;94318.25;;;1.90;76.74
32243;BME280;18731;42.830;24.390;2023-01-28T15:34:27;94320.94;;;1.85;77.13
32243;BME280;18731;42.830;24.390;2023-01-28T15:36:57;94322.06;;;1.79;77.20
32243;BME280;18731;42.830;24.390;2023-01-28T15:39:25;94321.59;;;1.72;77.07
32243;BME280;18731;42.830;24.390;2023-01-28T15:41:56;94327.41;;;1.69;77.52
32243;BME280;18731;42.830;24.390;2023-01-28T15:44:28;94325.81;;;1.68;77.82
32243;BME280;18731;42.830;24.390;2023-01-28T15:47:03;94317.00;;;1.54;78.04
32243;BME280;18731;42.830;24.390;2023-01-28T15:49:41;94332.50;;;1.55;78.50
32243;BME280;18731;42.830;24.390;2023-01-28T15:52:08;94336.44;;;1.58;78.64
32243;BME280;18731;42.830;24.390;2023-01-28T15:54:39;94307.41;;;1.34;78.89
32243;BME280;18731;42.830;24.390;2023-01-28T15:57:20;94311.34;;;1.37;79.05
32243;BME280;18731;42.830;24.390;2023-01-28T15:59:46;94330.78;;;1.41;79.02
32243;BME280;18731;42.830;24.390;2023-01-28T16:02:19;94339.66;;;1.50;79.01
32243;BME280;18731;42.830;24.390;2023-01-28T16:04:55;94348.16;;;1.37;79.39
32243;BME280;18731;42.830;24.390;2023-01-28T16:07:22;94332.47;;;1.21;79.98
32243;BME280;18731;42.830;24.390;2023-01-28T16:09:52;94344.06;;;1.20;80.60
32243;BME280;18731;42.830;24.390;2023-01-28T16:12:19;94353.59;;;1.06;81.09
32243;BME280;18731;42.830;24.390;2023-01-28T16:14:53;94351.75;;;1.07;80.91
32243;BME280;18731;42.830;24.390;2023-01-28T16:17:26;94360.94;;;1.09;81.03
32243;BME280;18731;42.830;24.390;2023-01-28T16:20:00;94348.38;;;1.01;81.09
32243;BME280;18731;42.830;24.390;2023-01-28T16:22:35;94356.75;;;1.08;81.21
32243;BME280;18731;42.830;24.390;2023-01-28T16:25:03;94359.91;;;1.05;81.13
32243;BME280;18731;42.830;24.390;2023-01-28T16:27:48;94367.81;;;1.05;81.27
32243;BME280;18731;42.830;24.390;2023-01-28T16:30:15;94364.13;;;1.01;81.70
32243;BME280;18731;42.830;24.390;2023-01-28T16:32:41;94352.09;;;0.90;81.64
32243;BME280;18731;42.830;24.390;2023-01-28T16:35:20;94372.03;;;1.01;82.00
32243;BME280;18731;42.830;24.390;2023-01-28T16:37:48;94372.78;;;1.07;81.59
32243;BME280;18731;42.830;24.390;2023-01-28T16:40:17;94368.34;;;1.02;81.56
32243;BME280;18731;42.830;24.390;2023-01-28T16:42:43;94382.50;;;1.06;81.62
32243;BME280;18731;42.830;24.390;2023-01-28T16:45:17;94372.53;;;1.03;81.48
32243;BME280;18731;42.830;24.390;2023-01-28T16:47:43;94377.78;;;1.08;81.50
32243;BME280;18731;42.830;24.390;2023-01-28T16:50:10;94382.03;;;0.99;81.79
32243;BME280;18731;42.830;24.390;2023-01-28T16:52:37;94377.31;;;0.91;81.93
32243;BME280;18731;42.830;24.390;2023-01-28T16:55:03;94384.66;;;0.94;82.27
32243;BME280;18731;42.830;24.390;2023-01-28T16:57:31;94387.28;;;0.99;82.42
32243;BME280;18731;42.830;24.390;2023-01-28T16:59:59;94382.25;;;1.03;82.28
32243;BME280;18731;42.830;24.390;2023-01-28T17:02:25;94387.53;;;1.03;81.78
32243;BME280;18731;42.830;24.390;2023-01-28T17:04:51;94383.59;;;1.00;82.05
32243;BME280;18731;42.830;24.390;2023-01-28T17:07:16;94376.28;;;0.92;82.12
32243;BME280;18731;42.830;24.390;2023-01-28T17:09:42;94399.91;;;0.97;82.60
32243;BME280;18731;42.830;24.390;2023-01-28T17:12:08;94396.47;;;0.96;82.48
32243;BME280;18731;42.830;24.390;2023-01-28T17:14:34;94408.78;;;1.06;81.93
32243;BME280;18731;42.830;24.390;2023-01-28T17:16:59;94390.19;;;0.98;82.09
32243;BME280;18731;42.830;24.390;2023-01-28T17:19:25;94398.56;;;1.05;82.12
32243;BME280;18731;42.830;24.390;2023-01-28T17:21:51;94388.88;;;0.95;82.42
32243;BME280;18731;42.830;24.390;2023-01-28T17:24:16;94404.56;;;1.10;82.57
32243;BME280;18731;42.830;24.390;2023-01-28T17:26:42;94410.06;;;1.14;82.12
32243;BME280;18731;42.830;24.390;2023-01-28T17:29:08;94400.38;;;1.09;81.95
32243;BME280;18731;42.830;24.390;2023-01-28T17:31:34;94413.25;;;1.06;81.88
32243;BME280;18731;42.830;24.390;2023-01-28T17:34:00;94412.72;;;1.09;82.35
32243;BME280;18731;42.830;24.390;2023-01-28T17:36:27;94412.72;;;1.09;82.19
32243;BME280;18731;42.830;24.390;2023-01-28T17:38:53;94414.59;;;1.03;82.52
32243;BME280;18731;42.830;24.390;2023-01-28T17:41:19;94415.63;;;1.07;82.69
32243;BME280;18731;42.830;24.390;2023-01-28T17:43:50;94399.34;;;1.00;82.34
32243;BME280;18731;42.830;24.390;2023-01-28T17:46:16;94422.69;;;1.12;82.32
32243;BME280;18731;42.830;24.390;2023-01-28T17:48:43;94416.66;;;1.11;82.20
32243;BME280;18731;42.830;24.390;2023-01-28T17:51:11;94418.22;;;1.12;82.25
32243;BME280;18731;42.830;24.390;2023-01-28T17:53:38;94421.38;;;1.14;82.04
32243;BME280;18731;42.830;24.390;2023-01-28T17:56:04;94424.00;;;1.14;81.96
32243;BME280;18731;42.830;24.390;2023-01-28T17:58:30;94431.13;;;1.09;81.98
32243;BME280;18731;42.830;24.390;2023-01-28T18:00:56;94423.25;;;1.04;82.28
32243;BME280;18731;42.830;24.390;2023-01-28T18:03:21;94429.81;;;1.06;82.39
32243;BME280;18731;42.830;24.390;2023-01-28T18:05:57;94413.63;;;0.79;82.83
32243;BME280;18731;42.830;24.390;2023-01-28T18:08:23;94433.03;;;0.88;83.41
32243;BME280;18731;42.830;24.390;2023-01-28T18:10:49;94423.09;;;0.80;83.29
32243;BME280;18731;42.830;24.390;2023-01-28T18:13:14;94428.31;;;0.85;83.37
32243;BME280;18731;42.830;24.390;2023-01-28T18:15:40;94422.56;;;0.78;83.46
32243;BME280;18731;42.830;24.390;2023-01-28T18:18:06;94433.56;;;0.90;83.41
32243;BME280;18731;42.830;24.390;2023-01-28T18:20:32;94440.91;;;0.93;83.31
32243;BME280;18731;42.830;24.390;2023-01-28T18:22:59;94439.41;;;0.72;83.98
32243;BME280;18731;42.830;24.390;2023-01-28T18:25:25;94444.13;;;0.75;84.07
32243;BME280;18731;42.830;24.390;2023-01-28T18:27:51;94434.41;;;0.75;84.13
32243;BME280;18731;42.830;24.390;2023-01-28T18:30:18;94435.19;;;0.76;84.12
32243;BME280;18731;42.830;24.390;2023-01-28T18:32:43;94437.28;;;0.74;84.39
32243;BME280;18731;42.830;24.390;2023-01-28T18:35:10;94431.50;;;0.82;83.99
32243;BME280;18731;42.830;24.390;2023-01-28T18:37:36;94446.97;;;0.88;84.16
32243;BME280;18731;42.830;24.390;2023-01-28T18:40:03;94440.38;;;0.96;83.71
32243;BME280;18731;42.830;24.390;2023-01-28T18:42:29;94428.56;;;0.88;83.87